createdAt,value
2018-03-24T00:00:22.366Z,1.72
2018-03-24T00:01:30.356Z,1.80
2018-03-24T00:02:40.761Z,1.68
2018-03-24T00:03:46.974Z,1.62
2018-03-24T00:04:53.161Z,1.59
2018-03-24T00:06:05.411Z,1.61
2018-03-24T00:07:11.644Z,1.63
2018-03-24T00:08:17.826Z,1.63
2018-03-24T00:09:24.658Z,1.65
2018-03-24T00:10:30.997Z,1.72
2018-03-24T00:11:36.949Z,1.77
2018-03-24T00:14:04.550Z,1.74
2018-03-24T00:15:13.559Z,1.77
2018-03-24T00:17:34.728Z,1.74
2018-03-24T00:18:41.235Z,1.79
2018-03-24T00:19:47.437Z,1.82
2018-03-24T00:20:57.578Z,1.88
2018-03-24T00:22:03.785Z,1.90
2018-03-24T00:23:09.658Z,2.01
2018-03-24T00:24:15.846Z,1.95
2018-03-24T00:25:22.119Z,2.15
2018-03-24T00:26:32.536Z,2.20
2018-03-24T00:27:40.591Z,1.98
2018-03-24T00:28:46.859Z,1.95
2018-03-24T00:29:53.109Z,2.00
2018-03-24T00:30:59.294Z,1.99
2018-03-24T00:32:10.772Z,1.96
2018-03-24T00:33:16.948Z,1.76
2018-03-24T00:34:23.181Z,1.91
2018-03-24T00:35:29.366Z,1.77
2018-03-24T00:36:35.580Z,1.81
2018-03-24T00:37:41.758Z,1.89
2018-03-24T00:38:47.910Z,1.91
2018-03-24T00:39:54.135Z,1.96
2018-03-24T00:41:00.336Z,2.10
2018-03-24T00:42:06.505Z,2.22
2018-03-24T00:43:12.712Z,2.25
2018-03-24T00:44:18.938Z,2.33
2018-03-24T00:45:27.934Z,2.37
2018-03-24T00:46:33.822Z,2.27
2018-03-24T00:47:40.057Z,2.24
2018-03-24T00:48:46.262Z,2.25
2018-03-24T00:49:52.499Z,2.25
2018-03-24T00:51:03.577Z,2.19
2018-03-24T00:52:14.949Z,2.21
2018-03-24T00:53:26.206Z,2.24
2018-03-24T00:54:32.390Z,2.22
2018-03-24T00:55:38.569Z,2.27
2018-03-24T00:56:44.281Z,2.30
2018-03-24T00:57:52.869Z,2.30
2018-03-24T00:59:01.898Z,2.27
2018-03-24T01:00:08.044Z,2.29
2018-03-24T01:01:14.226Z,2.27
2018-03-24T01:02:20.378Z,2.20
2018-03-24T01:03:26.731Z,2.11
2018-03-24T01:04:32.913Z,2.06
2018-03-24T01:05:40.122Z,2.17
2018-03-24T01:06:46.388Z,2.23
2018-03-24T01:07:52.605Z,2.24
2018-03-24T01:08:58.529Z,2.24
2018-03-24T01:10:04.621Z,2.19
2018-03-24T01:11:16.839Z,2.18
2018-03-24T01:12:23.011Z,2.08
2018-03-24T01:13:29.208Z,2.03
2018-03-24T01:14:35.194Z,2.00
2018-03-24T01:15:41.486Z,2.08
2018-03-24T01:16:48.659Z,2.05
2018-03-24T01:17:57.831Z,2.07
2018-03-24T01:19:04.161Z,1.91
2018-03-24T01:20:10.803Z,1.98
2018-03-24T01:21:17.052Z,2.05
2018-03-24T01:22:23.261Z,2.15
2018-03-24T01:23:29.552Z,2.27
2018-03-24T01:24:35.720Z,2.19
2018-03-24T01:25:42.039Z,2.22
2018-03-24T01:26:53.211Z,2.12
2018-03-24T01:27:59.414Z,2.18
2018-03-24T01:29:05.632Z,2.30
2018-03-24T01:30:11.781Z,2.33
2018-03-24T01:31:17.980Z,2.29
2018-03-24T01:32:24.185Z,2.23
2018-03-24T01:33:29.982Z,2.30
2018-03-24T01:34:36.152Z,2.31
2018-03-24T01:35:42.341Z,2.26
2018-03-24T01:36:48.601Z,2.06
2018-03-24T01:37:54.764Z,2.04
2018-03-24T01:39:01.029Z,2.02
2018-03-24T01:40:07.369Z,2.07
2018-03-24T01:41:13.560Z,2.07
2018-03-24T01:42:19.742Z,2.06
2018-03-24T01:43:25.931Z,2.04
2018-03-24T01:44:32.160Z,2.13
2018-03-24T01:45:39.372Z,2.07
2018-03-24T01:46:46.684Z,2.07
2018-03-24T01:47:52.885Z,1.99
2018-03-24T01:48:59.083Z,1.87
2018-03-24T01:50:04.641Z,1.87
2018-03-24T01:51:10.581Z,1.91
2018-03-24T01:52:16.777Z,1.77
2018-03-24T01:53:24.933Z,1.91
2018-03-24T01:54:47.236Z,1.97
2018-03-24T01:55:53.422Z,2.08
2018-03-24T01:57:00.246Z,2.03
2018-03-24T01:58:06.405Z,2.14
2018-03-24T01:59:12.612Z,2.12
2018-03-24T02:00:18.861Z,2.16
2018-03-24T02:01:23.709Z,2.11
2018-03-24T02:02:29.915Z,2.13
2018-03-24T02:03:36.137Z,2.17
2018-03-24T02:04:42.369Z,2.09
2018-03-24T02:05:48.256Z,2.19
2018-03-24T02:06:54.455Z,2.10
2018-03-24T02:08:00.650Z,2.01
2018-03-24T02:09:06.454Z,2.15
2018-03-24T02:10:13.358Z,2.13
2018-03-24T02:11:19.517Z,2.10
2018-03-24T02:12:26.685Z,2.16
2018-03-24T02:13:32.896Z,2.22
2018-03-24T02:14:39.032Z,2.23
2018-03-24T02:15:44.935Z,2.28
2018-03-24T02:16:51.070Z,2.39
2018-03-24T02:18:05.838Z,2.43
2018-03-24T02:19:11.777Z,2.43
2018-03-24T02:20:18.313Z,2.40
2018-03-24T02:21:27.284Z,2.37
2018-03-24T02:22:33.717Z,2.36
2018-03-24T02:23:45.354Z,2.34
2018-03-24T02:24:52.749Z,2.35
2018-03-24T02:25:58.846Z,2.30
2018-03-24T02:27:05.046Z,2.33
2018-03-24T02:28:11.229Z,2.27
2018-03-24T02:29:17.488Z,2.22
2018-03-24T02:30:23.514Z,2.16
2018-03-24T02:31:29.537Z,2.19
2018-03-24T02:32:35.760Z,2.14
2018-03-24T02:33:41.807Z,2.13
2018-03-24T02:34:48.002Z,2.04
2018-03-24T02:35:54.235Z,2.09
2018-03-24T02:37:00.281Z,2.10
2018-03-24T02:38:10.389Z,2.14
2018-03-24T02:39:16.632Z,2.06
2018-03-24T02:40:22.872Z,2.11
2018-03-24T02:41:28.891Z,2.09
2018-03-24T02:42:35.077Z,2.04
2018-03-24T02:43:43.961Z,2.00
2018-03-24T02:44:52.175Z,2.00
2018-03-24T02:45:58.345Z,1.98
2018-03-24T02:47:04.513Z,1.96
2018-03-24T02:48:10.738Z,2.00
2018-03-24T02:49:16.986Z,1.98
2018-03-24T02:50:23.181Z,2.03
2018-03-24T02:51:29.406Z,2.05
2018-03-24T02:52:37.022Z,2.04
2018-03-24T02:53:43.201Z,2.11
2018-03-24T02:54:49.390Z,2.09
2018-03-24T02:55:55.583Z,2.02
2018-03-24T02:57:01.817Z,1.99
2018-03-24T02:58:08.034Z,1.89
2018-03-24T02:59:14.226Z,1.84
2018-03-24T03:00:23.883Z,1.97
2018-03-24T03:01:30.194Z,2.01
2018-03-24T03:02:36.442Z,2.02
2018-03-24T03:03:42.674Z,2.07
2018-03-24T03:04:48.944Z,2.08
2018-03-24T03:05:55.185Z,2.01
2018-03-24T03:07:01.369Z,2.00
2018-03-24T03:08:07.286Z,1.92
2018-03-24T03:09:13.158Z,2.01
2018-03-24T03:10:20.189Z,2.03
2018-03-24T03:11:26.405Z,2.05
2018-03-24T03:12:32.627Z,2.01
2018-03-24T03:13:38.819Z,2.04
2018-03-24T03:14:48.213Z,2.11
2018-03-24T03:15:54.445Z,2.10
2018-03-24T03:17:00.622Z,2.12
2018-03-24T03:18:06.117Z,2.00
2018-03-24T03:19:14.438Z,2.00
2018-03-24T03:20:20.481Z,2.05
2018-03-24T03:21:26.032Z,2.20
2018-03-24T03:22:31.836Z,2.08
2018-03-24T03:23:37.996Z,2.19
2018-03-24T03:24:44.148Z,2.24
2018-03-24T03:25:54.466Z,2.09
2018-03-24T03:27:01.980Z,2.06
2018-03-24T03:28:07.621Z,2.03
2018-03-24T03:29:13.987Z,1.98
2018-03-24T03:30:25.977Z,2.00
2018-03-24T03:31:32.201Z,2.07
2018-03-24T03:32:38.222Z,2.03
2018-03-24T03:33:44.517Z,1.95
2018-03-24T03:34:50.666Z,1.90
2018-03-24T03:35:56.809Z,1.92
2018-03-24T03:37:04.016Z,1.91
2018-03-24T03:38:17.587Z,1.88
2018-03-24T03:39:25.637Z,1.84
2018-03-24T03:40:31.815Z,1.83
2018-03-24T03:41:44.049Z,1.72
2018-03-24T03:42:50.180Z,1.70
2018-03-24T03:44:00.869Z,1.74
2018-03-24T03:45:07.069Z,1.62
2018-03-24T03:46:13.351Z,1.61
2018-03-24T03:47:25.845Z,1.55
2018-03-24T03:48:32.306Z,1.52
2018-03-24T03:49:38.505Z,1.59
2018-03-24T03:50:50.800Z,1.52
2018-03-24T03:51:56.614Z,1.46
2018-03-24T03:53:02.778Z,1.52
2018-03-24T03:54:13.072Z,1.51
2018-03-24T03:55:19.040Z,1.39
2018-03-24T03:56:28.308Z,1.41
2018-03-24T03:57:34.550Z,1.38
2018-03-24T03:58:41.076Z,1.33
2018-03-24T03:59:47.282Z,1.38
2018-03-24T04:00:53.428Z,1.32
2018-03-24T04:01:59.602Z,1.27
2018-03-24T04:03:05.814Z,1.22
2018-03-24T04:04:12.009Z,1.20
2018-03-24T04:05:18.197Z,1.13
2018-03-24T04:06:34.409Z,1.00
2018-03-24T04:07:44.001Z,1.05
2018-03-24T04:08:50.215Z,1.08
2018-03-24T04:09:56.410Z,1.08
2018-03-24T04:11:02.569Z,1.06
2018-03-24T04:12:08.709Z,0.99
2018-03-24T04:13:14.608Z,0.94
2018-03-24T04:14:20.501Z,0.92
2018-03-24T04:15:41.296Z,0.93
2018-03-24T04:16:47.518Z,0.98
2018-03-24T04:17:53.695Z,1.03
2018-03-24T04:18:59.898Z,1.01
2018-03-24T04:20:11.253Z,0.99
2018-03-24T04:21:17.463Z,0.92
2018-03-24T04:22:23.621Z,0.95
2018-03-24T04:23:29.779Z,0.93
2018-03-24T04:24:38.151Z,0.85
2018-03-24T04:25:44.487Z,0.86
2018-03-24T04:26:50.629Z,0.86
2018-03-24T04:27:56.830Z,0.85
2018-03-24T04:29:03.093Z,0.87
2018-03-24T04:30:09.300Z,0.88
2018-03-24T04:31:15.479Z,0.85
2018-03-24T04:32:21.648Z,0.74
2018-03-24T04:33:27.842Z,0.81
2018-03-24T04:34:34.063Z,0.86
2018-03-24T04:35:40.245Z,0.83
2018-03-24T04:36:46.493Z,0.81
2018-03-24T04:37:52.787Z,0.87
2018-03-24T04:38:59.004Z,0.80
2018-03-24T04:40:04.521Z,0.84
2018-03-24T04:41:10.671Z,0.88
2018-03-24T04:42:16.824Z,0.80
2018-03-24T04:43:22.950Z,0.76
2018-03-24T04:44:37.522Z,0.71
2018-03-24T04:45:48.945Z,0.72
2018-03-24T04:46:55.170Z,0.77
2018-03-24T04:48:01.311Z,0.80
2018-03-24T04:49:07.581Z,0.81
2018-03-24T04:50:16.235Z,0.91
2018-03-24T04:51:22.905Z,0.91
2018-03-24T04:52:30.976Z,0.89
2018-03-24T04:53:37.195Z,0.99
2018-03-24T04:54:43.329Z,0.98
2018-03-24T04:55:49.518Z,0.93
2018-03-24T04:57:01.046Z,0.95
2018-03-24T04:58:07.264Z,0.98
2018-03-24T04:59:13.511Z,0.95
2018-03-24T05:00:19.773Z,0.97
2018-03-24T05:01:25.996Z,0.98
2018-03-24T05:02:32.172Z,1.02
2018-03-24T05:03:42.274Z,1.01
2018-03-24T05:04:48.457Z,1.02
2018-03-24T05:05:57.192Z,1.05
2018-03-24T05:07:03.741Z,1.03
2018-03-24T05:08:09.956Z,0.97
2018-03-24T05:09:16.146Z,0.99
2018-03-24T05:10:22.326Z,0.98
2018-03-24T05:11:30.377Z,1.02
2018-03-24T05:12:37.221Z,1.02
2018-03-24T05:13:43.370Z,1.07
2018-03-24T05:14:50.258Z,1.06
2018-03-24T05:15:56.472Z,1.11
2018-03-24T05:17:02.415Z,1.15
2018-03-24T05:18:08.622Z,1.17
2018-03-24T05:19:14.789Z,1.19
2018-03-24T05:20:23.662Z,1.18
2018-03-24T05:21:29.870Z,1.20
2018-03-24T05:22:36.038Z,1.19
2018-03-24T05:23:42.212Z,1.18
2018-03-24T05:24:48.450Z,1.25
2018-03-24T05:25:54.733Z,1.24
2018-03-24T05:27:00.965Z,1.33
2018-03-24T05:28:07.236Z,1.33
2018-03-24T05:29:13.495Z,1.38
2018-03-24T05:30:19.744Z,1.37
2018-03-24T05:31:25.902Z,1.35
2018-03-24T05:32:38.510Z,1.45
2018-03-24T05:33:50.193Z,1.54
2018-03-24T05:34:56.388Z,1.51
2018-03-24T05:36:03.000Z,1.62
2018-03-24T05:37:09.248Z,1.71
2018-03-24T05:38:15.446Z,1.76
2018-03-24T05:39:21.616Z,1.73
2018-03-24T05:40:27.856Z,1.74
2018-03-24T05:41:34.070Z,1.68
2018-03-24T05:42:40.310Z,1.65
2018-03-24T05:43:46.248Z,1.70
2018-03-24T05:44:52.458Z,1.88
2018-03-24T05:45:58.698Z,1.96
2018-03-24T05:47:04.772Z,2.04
2018-03-24T05:48:10.985Z,1.97
2018-03-24T05:49:17.238Z,2.03
2018-03-24T05:50:23.415Z,2.08
2018-03-24T05:51:29.929Z,2.10
2018-03-24T05:52:36.416Z,2.10
2018-03-24T05:53:44.164Z,2.01
2018-03-24T05:54:54.786Z,1.92
2018-03-24T05:56:00.985Z,2.01
2018-03-24T05:57:07.335Z,2.10
2018-03-24T05:58:13.880Z,2.17
2018-03-24T05:59:20.752Z,2.18
2018-03-24T06:00:32.427Z,2.22
2018-03-24T06:01:38.936Z,2.32
2018-03-24T06:02:45.748Z,2.36
2018-03-24T06:03:53.649Z,2.41
2018-03-24T06:05:01.237Z,2.42
2018-03-24T06:06:07.974Z,2.35
2018-03-24T06:07:14.546Z,2.39
2018-03-24T06:08:21.239Z,2.33
2018-03-24T06:09:28.351Z,2.32
2018-03-24T06:10:35.145Z,2.49
2018-03-24T06:11:45.758Z,2.74
2018-03-24T06:13:00.348Z,2.97
2018-03-24T06:14:06.940Z,3.08
2018-03-24T06:15:21.565Z,3.07
2018-03-24T06:16:28.546Z,3.20
2018-03-24T06:17:36.727Z,3.23
2018-03-24T06:18:43.345Z,3.27
2018-03-24T06:19:55.890Z,3.11
2018-03-24T06:21:03.354Z,3.24
2018-03-24T06:22:10.721Z,3.33
2018-03-24T06:23:17.803Z,3.28
2018-03-24T06:24:30.020Z,3.28
2018-03-24T06:25:38.176Z,3.43
2018-03-24T06:26:45.120Z,3.52
2018-03-24T06:27:53.547Z,3.63
2018-03-24T06:29:04.405Z,3.72
2018-03-24T06:30:10.540Z,3.73
2018-03-24T06:31:27.276Z,3.77
2018-03-24T06:32:35.095Z,3.89
2018-03-24T06:33:41.994Z,3.98
2018-03-24T06:34:48.858Z,4.11
2018-03-24T06:35:57.504Z,3.99
2018-03-24T06:37:14.719Z,3.72
2018-03-24T06:38:27.703Z,3.47
2018-03-24T06:39:44.892Z,3.41
2018-03-24T06:40:51.484Z,3.48
2018-03-24T06:41:57.709Z,3.42
2018-03-24T06:43:05.219Z,3.40
2018-03-24T06:44:11.211Z,3.35
2018-03-24T06:45:17.434Z,3.31
2018-03-24T06:46:23.617Z,3.28
2018-03-24T06:47:29.769Z,3.29
2018-03-24T06:48:41.032Z,3.23
2018-03-24T06:49:47.306Z,3.32
2018-03-24T06:50:56.243Z,3.54
2018-03-24T06:52:02.457Z,3.72
2018-03-24T06:53:08.875Z,3.63
2018-03-24T06:54:15.047Z,3.65
2018-03-24T06:55:26.951Z,3.54
2018-03-24T06:56:36.846Z,3.27
2018-03-24T06:57:42.674Z,3.11
2018-03-24T06:58:48.936Z,3.44
2018-03-24T06:59:55.206Z,3.47
2018-03-24T07:01:06.274Z,3.49
2018-03-24T07:02:12.208Z,3.63
2018-03-24T07:03:18.361Z,3.89
2018-03-24T07:04:24.543Z,3.66
2018-03-24T07:05:35.978Z,3.79
2018-03-24T07:06:42.198Z,3.74
2018-03-24T07:07:48.349Z,3.95
2018-03-24T07:09:00.782Z,3.84
2018-03-24T07:10:06.600Z,3.45
2018-03-24T07:11:12.830Z,3.42
2018-03-24T07:12:19.096Z,3.45
2018-03-24T07:13:25.410Z,3.37
2018-03-24T07:14:31.581Z,3.52
2018-03-24T07:15:37.936Z,3.79
2018-03-24T07:16:44.129Z,3.87
2018-03-24T07:17:50.328Z,4.08
2018-03-24T07:18:56.876Z,4.02
2018-03-24T07:20:03.126Z,3.90
2018-03-24T07:21:09.274Z,3.64
2018-03-24T07:22:15.518Z,3.66
2018-03-24T07:23:23.581Z,3.75
2018-03-24T07:24:32.715Z,3.90
2018-03-24T07:25:38.706Z,3.65
2018-03-24T07:26:44.926Z,3.64
2018-03-24T07:27:51.169Z,3.69
2018-03-24T07:28:57.415Z,3.69
2018-03-24T07:30:12.899Z,3.82
2018-03-24T07:31:27.914Z,3.90
2018-03-24T07:32:34.169Z,3.64
2018-03-24T07:33:40.374Z,3.82
2018-03-24T07:34:46.552Z,4.06
2018-03-24T07:35:52.979Z,4.02
2018-03-24T07:36:59.483Z,4.24
2018-03-24T07:38:06.495Z,4.27
2018-03-24T07:39:12.704Z,4.49
2018-03-24T07:40:18.899Z,4.53
2018-03-24T07:41:25.102Z,4.46
2018-03-24T07:42:31.298Z,4.48
2018-03-24T07:43:37.549Z,4.57
2018-03-24T07:44:43.864Z,4.45
2018-03-24T07:45:50.047Z,4.58
2018-03-24T07:46:56.168Z,4.51
2018-03-24T07:48:02.340Z,4.29
2018-03-24T07:49:08.579Z,4.45
2018-03-24T07:50:14.764Z,4.53
2018-03-24T07:51:20.954Z,4.77
2018-03-24T07:52:27.221Z,4.96
2018-03-24T07:53:33.697Z,5.04
2018-03-24T07:54:40.121Z,4.95
2018-03-24T07:55:47.200Z,4.92
2018-03-24T07:56:53.863Z,4.98
2018-03-24T07:58:00.137Z,4.83
2018-03-24T07:59:06.626Z,4.95
2018-03-24T08:00:12.924Z,4.60
2018-03-24T08:01:24.043Z,4.62
2018-03-24T08:02:30.302Z,4.87
2018-03-24T08:03:36.550Z,5.00
2018-03-24T08:04:43.558Z,4.87
2018-03-24T08:05:49.800Z,4.98
2018-03-24T08:06:56.158Z,5.11
2018-03-24T08:08:02.137Z,5.15
2018-03-24T08:09:08.358Z,5.05
2018-03-24T08:10:14.518Z,5.36
2018-03-24T08:11:20.750Z,5.47
2018-03-24T08:12:27.057Z,5.56
2018-03-24T08:13:33.275Z,5.50
2018-03-24T08:14:39.535Z,5.66
2018-03-24T08:15:46.400Z,5.46
2018-03-24T08:16:52.780Z,5.42
2018-03-24T08:17:59.196Z,5.27
2018-03-24T08:19:08.341Z,5.12
2018-03-24T08:20:14.720Z,5.33
2018-03-24T08:21:23.671Z,5.24
2018-03-24T08:22:30.533Z,5.33
2018-03-24T08:23:36.497Z,5.31
2018-03-24T08:24:42.738Z,5.39
2018-03-24T08:25:48.980Z,5.56
2018-03-24T08:26:55.236Z,5.61
2018-03-24T08:28:01.590Z,5.70
2018-03-24T08:29:07.893Z,5.60
2018-03-24T08:30:14.170Z,5.66
2018-03-24T08:31:20.557Z,5.48
2018-03-24T08:32:26.845Z,5.34
2018-03-24T08:33:33.110Z,5.65
2018-03-24T08:34:40.848Z,5.62
2018-03-24T08:35:47.053Z,5.84
2018-03-24T08:36:53.276Z,5.98
2018-03-24T08:38:00.130Z,6.13
2018-03-24T08:39:10.227Z,5.90
2018-03-24T08:40:16.441Z,6.01
2018-03-24T08:41:22.686Z,6.01
2018-03-24T08:42:28.964Z,5.94
2018-03-24T08:43:35.276Z,5.81
2018-03-24T08:44:46.790Z,6.03
2018-03-24T08:45:53.035Z,5.90
2018-03-24T08:47:05.422Z,5.82
2018-03-24T08:48:11.603Z,5.87
2018-03-24T08:49:18.111Z,5.60
2018-03-24T08:50:24.311Z,5.65
2018-03-24T08:51:44.125Z,5.62
2018-03-24T08:52:50.441Z,5.69
2018-03-24T08:53:56.735Z,5.32
2018-03-24T08:55:03.242Z,5.57
2018-03-24T08:56:09.566Z,5.66
2018-03-24T08:57:15.860Z,5.84
2018-03-24T08:58:22.148Z,6.16
2018-03-24T08:59:28.394Z,5.93
2018-03-24T09:00:34.661Z,5.59
2018-03-24T09:01:40.946Z,5.64
2018-03-24T09:02:48.028Z,5.61
2018-03-24T09:03:57.595Z,5.59
2018-03-24T09:05:03.546Z,5.78
2018-03-24T09:06:09.881Z,5.93
2018-03-24T09:07:16.176Z,6.10
2018-03-24T09:08:22.436Z,6.27
2018-03-24T09:09:29.010Z,6.52
2018-03-24T09:10:35.265Z,6.69
2018-03-24T09:11:41.491Z,6.53
2018-03-24T09:12:47.734Z,6.70
2018-03-24T09:13:54.054Z,6.77
2018-03-24T09:15:00.297Z,6.83
2018-03-24T09:16:09.165Z,6.81
2018-03-24T09:17:16.256Z,6.65
2018-03-24T09:18:22.511Z,6.77
2018-03-24T09:19:28.829Z,6.87
2018-03-24T09:20:35.133Z,6.74
2018-03-24T09:21:41.422Z,6.59
2018-03-24T09:22:47.732Z,6.56
2018-03-24T09:23:53.969Z,6.46
2018-03-24T09:25:00.280Z,6.79
2018-03-24T09:26:06.661Z,7.07
2018-03-24T09:27:13.908Z,6.66
2018-03-24T09:28:20.173Z,6.71
2018-03-24T09:29:31.143Z,6.41
2018-03-24T09:30:37.400Z,6.31
2018-03-24T09:31:45.356Z,6.32
2018-03-24T09:32:51.689Z,6.47
2018-03-24T09:33:58.039Z,6.68
2018-03-24T09:35:04.013Z,6.80
2018-03-24T09:36:10.695Z,6.68
2018-03-24T09:37:21.779Z,6.52
2018-03-24T09:38:28.031Z,6.56
2018-03-24T09:39:34.392Z,6.41
2018-03-24T09:40:41.621Z,6.62
2018-03-24T09:41:47.891Z,6.64
2018-03-24T09:42:54.148Z,6.72
2018-03-24T09:44:00.417Z,6.91
2018-03-24T09:45:10.202Z,7.18
2018-03-24T09:46:18.365Z,7.25
2018-03-24T09:47:24.651Z,7.19
2018-03-24T09:48:31.147Z,7.39
2018-03-24T09:49:37.401Z,7.53
2018-03-24T09:50:43.694Z,7.54
2018-03-24T09:51:49.908Z,7.59
2018-03-24T09:52:56.287Z,7.33
2018-03-24T09:54:02.596Z,7.20
2018-03-24T09:55:08.874Z,7.27
2018-03-24T09:56:15.152Z,7.54
2018-03-24T09:57:21.385Z,7.71
2018-03-24T09:58:30.535Z,7.88
2018-03-24T09:59:36.928Z,8.11
2018-03-24T10:00:43.170Z,7.77
2018-03-24T10:01:49.455Z,7.79
2018-03-24T10:02:55.721Z,7.98
2018-03-24T10:04:02.013Z,7.96
2018-03-24T10:05:08.351Z,7.76
2018-03-24T10:06:14.630Z,7.75
2018-03-24T10:07:20.912Z,7.64
2018-03-24T10:08:27.241Z,7.58
2018-03-24T10:09:33.516Z,7.58
2018-03-24T10:10:44.782Z,7.70
2018-03-24T10:11:51.086Z,7.93
2018-03-24T10:13:00.385Z,7.69
2018-03-24T10:14:06.910Z,7.58
2018-03-24T10:15:12.952Z,7.60
2018-03-24T10:16:19.191Z,7.92
2018-03-24T10:17:25.486Z,8.09
2018-03-24T10:18:31.900Z,8.18
2018-03-24T10:19:38.137Z,8.32
2018-03-24T10:33:08.839Z,8.97
2018-03-24T10:34:15.298Z,8.73
2018-03-24T10:35:21.652Z,8.65
2018-03-24T10:36:27.967Z,8.54
2018-03-24T10:37:39.719Z,8.32
2018-03-24T10:38:45.942Z,8.28
2018-03-24T10:39:52.153Z,8.05
2018-03-24T10:41:06.473Z,7.85
2018-03-24T10:42:16.682Z,8.04
2018-03-24T10:43:28.629Z,7.95
2018-03-24T10:44:35.189Z,7.98
2018-03-24T10:45:43.485Z,7.85
2018-03-24T10:46:49.784Z,7.87
2018-03-24T10:48:01.649Z,8.02
2018-03-24T10:49:07.856Z,8.17
2018-03-24T10:50:14.149Z,8.46
2018-03-24T10:51:20.368Z,8.59
2018-03-24T10:52:26.704Z,8.58
2018-03-24T10:53:33.004Z,8.69
2018-03-24T10:54:39.252Z,8.77
2018-03-24T10:55:45.522Z,8.61
2018-03-24T10:56:54.829Z,8.55
2018-03-24T10:58:01.148Z,8.74
2018-03-24T10:59:07.417Z,8.86
2018-03-24T11:00:13.532Z,8.79
2018-03-24T11:01:24.048Z,8.75
2018-03-24T11:02:30.435Z,8.97
2018-03-24T11:03:36.726Z,8.82
2018-03-24T11:04:43.017Z,8.78
2018-03-24T11:05:49.152Z,8.68
2018-03-24T11:06:55.377Z,8.89
2018-03-24T11:08:02.384Z,9.08
2018-03-24T11:09:08.650Z,8.71
2018-03-24T11:10:14.969Z,8.41
2018-03-24T11:11:21.209Z,8.46
2018-03-24T11:12:27.562Z,8.82
2018-03-24T11:13:34.960Z,8.88
2018-03-24T11:14:41.229Z,8.62
2018-03-24T11:15:47.453Z,8.70
2018-03-24T11:16:53.661Z,8.75
2018-03-24T11:17:59.975Z,8.98
2018-03-24T11:19:06.253Z,9.21
2018-03-24T11:20:12.548Z,9.29
2018-03-24T11:21:19.176Z,9.56
2018-03-24T11:22:25.446Z,9.39
2018-03-24T11:23:31.732Z,9.25
2018-03-24T11:24:37.993Z,9.10
2018-03-24T11:25:44.284Z,9.02
2018-03-24T11:26:50.574Z,9.02
2018-03-24T11:27:56.489Z,8.97
2018-03-24T11:29:02.749Z,9.07
2018-03-24T11:30:11.658Z,9.18
2018-03-24T11:31:17.955Z,8.70
2018-03-24T11:32:24.205Z,8.62
2018-03-24T11:33:30.568Z,8.74
2018-03-24T11:34:36.831Z,8.70
2018-03-24T11:35:43.391Z,8.72
2018-03-24T11:36:49.657Z,8.74
2018-03-24T11:37:55.873Z,8.67
2018-03-24T11:39:03.073Z,8.68
2018-03-24T11:40:10.426Z,8.64
2018-03-24T11:41:17.230Z,8.71
2018-03-24T11:42:23.429Z,8.74
2018-03-24T11:43:30.143Z,8.70
2018-03-24T11:44:36.394Z,8.75
2018-03-24T11:45:42.655Z,8.68
2018-03-24T11:46:48.956Z,8.65
2018-03-24T11:47:55.274Z,8.53
2018-03-24T11:49:01.535Z,8.45
2018-03-24T11:50:09.430Z,8.59
2018-03-24T11:51:15.907Z,8.75
2018-03-24T11:52:27.689Z,8.81
2018-03-24T11:53:44.905Z,8.87
2018-03-24T11:54:51.441Z,9.14
2018-03-24T11:55:57.662Z,8.95
2018-03-24T11:57:09.729Z,8.73
2018-03-24T11:58:15.938Z,8.97
2018-03-24T11:59:22.129Z,9.10
2018-03-24T12:00:28.400Z,9.14
2018-03-24T12:01:39.724Z,9.28
2018-03-24T12:02:46.041Z,9.03
2018-03-24T12:03:52.321Z,8.87
2018-03-24T12:04:58.535Z,9.04
2018-03-24T12:06:04.469Z,9.26
2018-03-24T12:07:10.774Z,9.40
2018-03-24T12:08:17.098Z,9.60
2018-03-24T12:09:23.511Z,9.56
2018-03-24T12:10:29.785Z,9.43
2018-03-24T12:11:36.050Z,9.61
2018-03-24T12:12:42.856Z,9.43
2018-03-24T12:13:51.649Z,9.59
2018-03-24T12:14:57.988Z,9.69
2018-03-24T12:16:03.854Z,9.86
2018-03-24T12:17:10.103Z,10.11
2018-03-24T12:18:16.375Z,10.02
2018-03-24T12:19:26.552Z,9.90
2018-03-24T12:20:36.718Z,9.64
2018-03-24T12:21:48.043Z,9.75
2018-03-24T12:22:54.325Z,9.97
2018-03-24T12:24:00.618Z,10.05
2018-03-24T12:25:06.929Z,10.19
2018-03-24T12:26:13.190Z,10.43
2018-03-24T12:27:19.467Z,10.18
2018-03-24T12:28:25.691Z,10.16
2018-03-24T12:29:33.076Z,10.17
2018-03-24T12:30:39.314Z,10.32
2018-03-24T12:31:45.579Z,10.38
2018-03-24T12:32:52.796Z,10.27
2018-03-24T12:33:59.070Z,10.25
2018-03-24T12:35:04.699Z,10.24
2018-03-24T12:36:12.950Z,10.45
2018-03-24T12:37:19.532Z,10.54
2018-03-24T12:38:25.779Z,10.60
2018-03-24T12:39:32.088Z,10.41
2018-03-24T12:40:38.382Z,9.99
2018-03-24T12:41:50.362Z,9.94
2018-03-24T12:42:56.608Z,10.04
2018-03-24T12:44:02.858Z,9.93
2018-03-24T12:45:09.190Z,9.79
2018-03-24T12:46:15.422Z,9.78
2018-03-24T12:47:25.576Z,9.59
2018-03-24T12:48:31.816Z,9.69
2018-03-24T12:49:43.807Z,9.52
2018-03-24T12:50:50.067Z,9.50
2018-03-24T12:51:56.763Z,9.47
2018-03-24T12:53:03.102Z,9.57
2018-03-24T12:54:12.231Z,9.57
2018-03-24T12:55:19.242Z,9.63
2018-03-24T12:56:25.567Z,9.47
2018-03-24T12:57:34.856Z,9.44
2018-03-24T12:58:43.768Z,9.60
2018-03-24T12:59:54.859Z,9.74
2018-03-24T13:01:01.616Z,9.82
2018-03-24T13:02:07.934Z,9.72
2018-03-24T13:03:14.182Z,9.47
2018-03-24T13:04:24.422Z,9.24
2018-03-24T13:05:30.651Z,9.35
2018-03-24T13:06:36.927Z,9.41
2018-03-24T13:07:43.254Z,9.52
2018-03-24T13:08:49.503Z,9.14
2018-03-24T13:09:55.814Z,9.09
2018-03-24T13:11:02.081Z,9.15
2018-03-24T13:12:08.103Z,9.23
2018-03-24T13:13:14.374Z,9.32
2018-03-24T13:14:21.569Z,9.13
2018-03-24T13:15:27.848Z,8.99
2018-03-24T13:16:40.387Z,9.15
2018-03-24T13:17:50.698Z,9.23
2018-03-24T13:18:56.938Z,9.30
2018-03-24T13:20:03.290Z,9.21
2018-03-24T13:21:09.334Z,9.29
2018-03-24T13:22:15.658Z,9.31
2018-03-24T13:23:21.985Z,9.19
2018-03-24T13:24:28.276Z,9.20
2018-03-24T13:25:34.596Z,9.25
2018-03-24T13:26:41.585Z,9.34
2018-03-24T13:27:47.884Z,9.47
2018-03-24T13:28:54.325Z,9.47
2018-03-24T13:30:00.663Z,9.65
2018-03-24T13:31:06.909Z,9.57
2018-03-24T13:32:13.282Z,9.48
2018-03-24T13:33:20.707Z,9.30
2018-03-24T13:34:29.702Z,9.43
2018-03-24T13:35:36.333Z,9.53
2018-03-24T13:36:44.777Z,9.60
2018-03-24T13:37:51.118Z,9.62
2018-03-24T13:38:57.382Z,9.49
2018-03-24T13:40:06.720Z,9.56
2018-03-24T13:41:19.069Z,9.43
2018-03-24T13:42:25.364Z,9.38
2018-03-24T13:43:31.716Z,9.56
2018-03-24T13:44:42.873Z,9.59
2018-03-24T13:45:51.157Z,9.63
2018-03-24T13:47:01.439Z,9.41
2018-03-24T13:48:08.953Z,9.52
2018-03-24T13:49:15.193Z,9.57
2018-03-24T13:50:21.463Z,9.58
2018-03-24T13:51:27.987Z,9.66
2018-03-24T13:52:34.454Z,9.42
2018-03-24T13:53:40.709Z,9.42
2018-03-24T13:54:46.948Z,9.27
2018-03-24T13:55:53.592Z,9.39
2018-03-24T13:56:59.798Z,9.41
2018-03-24T13:58:05.998Z,9.45
2018-03-24T13:59:20.838Z,9.48
2018-03-24T14:00:27.120Z,9.47
2018-03-24T14:01:35.901Z,9.44
2018-03-24T14:02:42.234Z,9.50
2018-03-24T14:03:48.466Z,9.49
2018-03-24T14:05:00.913Z,9.48
2018-03-24T14:06:07.114Z,9.45
2018-03-24T14:07:13.307Z,9.52
2018-03-24T14:08:19.637Z,9.45
2018-03-24T14:09:28.048Z,9.43
2018-03-24T14:10:34.258Z,9.41
2018-03-24T14:11:40.749Z,9.42
2018-03-24T14:12:47.061Z,9.39
2018-03-24T14:13:53.965Z,9.37
2018-03-24T14:15:00.894Z,9.45
2018-03-24T14:16:07.152Z,9.33
2018-03-24T14:17:13.480Z,9.39
2018-03-24T14:18:19.752Z,9.43
2018-03-24T14:19:26.088Z,9.45
2018-03-24T14:20:32.292Z,9.44
2018-03-24T14:21:38.521Z,9.50
2018-03-24T14:22:44.865Z,9.56
2018-03-24T14:23:51.106Z,9.64
2018-03-24T14:24:57.597Z,9.66
2018-03-24T14:26:09.087Z,9.63
2018-03-24T14:27:15.312Z,9.55
2018-03-24T14:28:26.458Z,9.56
2018-03-24T14:29:32.712Z,9.58
2018-03-24T14:30:38.994Z,9.63
2018-03-24T14:31:45.273Z,9.55
2018-03-24T14:32:56.726Z,9.45
2018-03-24T14:34:03.381Z,9.35
2018-03-24T14:35:09.629Z,9.40
2018-03-24T14:36:16.041Z,9.25
2018-03-24T14:37:22.267Z,9.15
2018-03-24T14:38:28.548Z,8.99
2018-03-24T14:39:35.646Z,8.95
2018-03-24T14:40:44.798Z,8.95
2018-03-24T14:41:51.888Z,8.95
2018-03-24T14:43:02.237Z,9.04
2018-03-24T14:44:08.986Z,9.06
2018-03-24T14:45:15.278Z,8.88
2018-03-24T14:46:21.525Z,8.93
2018-03-24T14:47:27.808Z,8.95
2018-03-24T14:48:36.625Z,9.00
2018-03-24T14:49:42.904Z,9.08
2018-03-24T14:50:49.229Z,8.98
2018-03-24T14:51:55.115Z,9.10
2018-03-24T14:53:01.420Z,9.16
2018-03-24T14:54:08.884Z,9.19
2018-03-24T14:55:14.885Z,9.14
2018-03-24T14:56:25.938Z,9.09
2018-03-24T14:57:32.207Z,9.12
2018-03-24T14:58:39.609Z,9.20
2018-03-24T14:59:45.940Z,9.26
2018-03-24T15:00:57.218Z,9.39
2018-03-24T15:02:03.541Z,9.43
2018-03-24T15:03:09.788Z,9.48
2018-03-24T15:04:16.100Z,9.54
2018-03-24T15:05:22.385Z,9.53
2018-03-24T15:06:28.663Z,9.57
2018-03-24T15:07:34.941Z,9.60